Time;durP1;ratioP1;P1;durP2;ratioP2;P2;SDS_P1;SDS_P2;PMS_P1;PMS_P2;Temp;Humidity;BMP_temperature;BMP_pressure;BME280_temperature;BME280_humidity;BME280_pressure;Samples;Min_cycle;Max_cycle;Signal;HPM_P1;HPM_P2
2022/07/28 00:00:45;;;;;;;2.37;1.20;;;19.60;54.50;;;;;;4994411;28;20474;-67
2022/07/28 00:03:12;;;;;;;2.33;1.20;;;19.60;54.40;;;;;;4994300;28;20452;-67
2022/07/28 00:05:39;;;;;;;8.57;2.17;;;19.60;54.30;;;;;;4994367;28;20453;-67
2022/07/28 00:08:08;;;;;;;3.90;1.23;;;19.50;54.50;;;;;;4994292;28;20451;-67
2022/07/28 00:10:36;;;;;;;4.50;1.47;;;19.50;54.50;;;;;;4994119;28;20475;-67
2022/07/28 00:13:03;;;;;;;2.03;1.43;;;19.50;54.60;;;;;;4994008;28;20460;-67
2022/07/28 00:15:30;;;;;;;1.60;1.40;;;19.50;54.70;;;;;;4994176;28;20468;-67
2022/07/28 00:17:59;;;;;;;3.30;1.40;;;19.50;54.70;;;;;;4994104;28;20448;-67
2022/07/28 00:20:26;;;;;;;2.93;1.30;;;19.40;54.80;;;;;;4993875;28;20539;-67
2022/07/28 00:22:53;;;;;;;7.03;1.43;;;19.40;54.70;;;;;;4993856;28;20463;-67
2022/07/28 00:25:20;;;;;;;2.50;1.30;;;19.40;54.90;;;;;;4993993;28;20451;-67
2022/07/28 00:27:47;;;;;;;3.37;1.53;;;19.40;55.00;;;;;;4993584;28;20973;-67
2022/07/28 00:30:14;;;;;;;3.73;1.33;;;19.40;55.20;;;;;;4993725;28;20981;-67
2022/07/28 00:32:41;;;;;;;2.03;1.40;;;19.40;55.40;;;;;;4993614;28;20960;-67
2022/07/28 00:35:09;;;;;;;2.80;1.50;;;19.40;55.50;;;;;;4993921;28;20510;-67
2022/07/28 00:37:36;;;;;;;1.67;1.10;;;19.30;55.50;;;;;;4993973;28;20448;-67
2022/07/28 00:40:04;;;;;;;2.70;1.20;;;19.40;55.60;;;;;;4993913;28;20858;-67
2022/07/28 00:42:30;;;;;;;3.00;1.50;;;19.30;56.00;;;;;;4993555;28;20448;-67
2022/07/28 00:44:57;;;;;;;4.67;1.63;;;19.30;55.50;;;;;;4993934;28;20437;-68
2022/07/28 00:47:24;;;;;;;2.87;1.10;;;19.30;55.60;;;;;;4993836;28;20448;-67
2022/07/28 00:49:57;;;;;;;2.30;1.60;;;19.30;55.70;;;;;;4993336;28;20468;-67
2022/07/28 00:52:25;;;;;;;3.43;1.43;;;19.20;55.50;;;;;;4993833;28;20457;-67
2022/07/28 00:54:52;;;;;;;1.70;1.20;;;19.20;55.60;;;;;;4993761;28;20555;-67
2022/07/28 00:57:20;;;;;;;1.90;1.37;;;19.20;55.70;;;;;;4993826;28;20470;-67
2022/07/28 00:59:47;;;;;;;4.10;1.27;;;19.10;55.80;;;;;;4993461;28;20555;-67
2022/07/28 01:02:14;;;;;;;5.53;1.57;;;19.10;55.90;;;;;;4994057;28;20448;-67
2022/07/28 01:04:41;;;;;;;1.73;1.57;;;19.00;55.90;;;;;;4997596;28;20451;-67
2022/07/28 01:07:18;;;;;;;2.17;1.20;;;19.00;56.00;;;;;;4997533;28;20456;-68
2022/07/28 01:09:58;;;;;;;4.87;2.33;;;19.00;56.10;;;;;;4997619;28;20468;-69
2022/07/28 01:12:45;;;;;;;2.30;1.30;;;18.90;56.20;;;;;;4997154;28;20459;-67
2022/07/28 01:15:22;;;;;;;2.53;1.40;;;18.90;56.40;;;;;;4997016;28;20969;-67
2022/07/28 01:17:54;;;;;;;2.00;1.37;;;18.90;56.50;;;;;;4997342;28;20428;-67
2022/07/28 01:20:25;;;;;;;2.87;1.40;;;18.90;56.50;;;;;;4996959;28;20843;-67
2022/07/28 01:23:21;;;;;;;2.03;1.17;;;18.80;56.70;;;;;;4997295;28;20522;-67
2022/07/28 01:25:58;;;;;;;2.97;1.13;;;18.80;56.90;;;;;;4997108;28;20444;-67
2022/07/28 01:28:36;;;;;;;3.77;1.47;;;18.80;57.00;;;;;;4996806;28;20918;-67
2022/07/28 01:31:07;;;;;;;4.57;1.30;;;18.70;57.60;;;;;;4996834;28;20474;-67
2022/07/28 01:33:38;;;;;;;2.70;1.40;;;18.70;57.10;;;;;;4997081;28;20480;-67
2022/07/28 01:36:11;;;;;;;1.73;1.43;;;18.70;57.30;;;;;;4996968;28;20835;-67
2022/07/28 01:38:39;;;;;;;4.17;1.63;;;18.70;57.70;;;;;;4996926;28;20471;-67
2022/07/28 01:41:09;;;;;;;2.73;1.23;;;18.70;57.80;;;;;;4996536;28;20463;-67
2022/07/28 01:43:39;;;;;;;1.97;1.50;;;18.60;57.80;;;;;;4996540;28;20976;-67
2022/07/28 01:46:10;;;;;;;2.90;1.20;;;18.60;57.90;;;;;;4996866;28;20432;-67
2022/07/28 01:48:40;;;;;;;1.43;1.20;;;18.60;57.80;;;;;;4996359;28;20977;-67
2022/07/28 01:51:08;;;;;;;3.60;1.30;;;18.60;57.80;;;;;;4997143;28;20473;-67
2022/07/28 01:53:38;;;;;;;2.70;1.23;;;18.60;57.80;;;;;;4996713;28;20452;-67
2022/07/28 01:56:07;;;;;;;2.33;1.30;;;18.60;57.70;;;;;;4996585;28;20480;-67
2022/07/28 01:58:35;;;;;;;3.63;1.17;;;18.60;57.80;;;;;;4996432;28;20459;-67
2022/07/28 02:01:03;;;;;;;1.90;1.30;;;18.60;57.80;;;;;;4996257;28;20950;-67
2022/07/28 02:03:34;;;;;;;2.97;1.53;;;18.60;57.60;;;;;;4996136;28;20448;-67
2022/07/28 02:06:02;;;;;;;3.00;1.37;;;18.60;57.60;;;;;;4996560;28;20432;-67
2022/07/28 02:08:31;;;;;;;2.70;1.63;;;18.60;57.60;;;;;;4996338;28;20545;-68
2022/07/28 02:13:45;;;;;;;1.27;0.93;;;18.50;57.80;;;;;;4996127;28;20775;-67
2022/07/28 02:16:14;;;;;;;3.07;1.57;;;18.50;57.90;;;;;;4995936;28;20491;-67
2022/07/28 02:18:45;;;;;;;1.67;1.13;;;18.50;58.10;;;;;;4996572;28;20468;-68
2022/07/28 02:21:12;;;;;;;1.67;1.33;;;18.50;58.00;;;;;;4996222;28;20508;-67
2022/07/28 02:23:43;;;;;;;3.53;1.17;;;18.40;58.10;;;;;;4996149;28;20463;-67
2022/07/28 02:26:12;;;;;;;1.90;1.47;;;18.40;58.00;;;;;;4996867;28;20441;-67
2022/07/28 02:28:42;;;;;;;2.10;1.13;;;18.30;58.10;;;;;;4995766;28;20479;-67
2022/07/28 02:31:14;;;;;;;2.40;1.30;;;18.30;58.20;;;;;;4995938;28;20437;-68
2022/07/28 02:33:43;;;;;;;1.30;1.20;;;18.30;58.20;;;;;;4995984;28;20448;-67
2022/07/28 02:36:15;;;;;;;2.40;1.10;;;18.30;58.30;;;;;;4995515;28;20531;-67
2022/07/28 02:38:45;;;;;;;1.57;1.07;;;18.30;58.30;;;;;;4995847;28;20491;-67
2022/07/28 02:41:17;;;;;;;3.60;1.40;;;18.30;58.30;;;;;;4995790;28;20450;-68
2022/07/28 02:43:47;;;;;;;3.10;1.53;;;18.30;58.30;;;;;;4995820;28;20440;-67
2022/07/28 02:46:18;;;;;;;2.50;1.10;;;18.30;58.30;;;;;;4995967;28;20444;-67
2022/07/28 02:48:50;;;;;;;1.30;0.97;;;18.20;58.30;;;;;;4995634;28;20472;-67
2022/07/28 02:51:18;;;;;;;3.37;1.50;;;18.20;58.30;;;;;;4995587;28;20435;-68
2022/07/28 02:53:46;;;;;;;2.57;1.13;;;18.20;59.00;;;;;;4996474;28;20452;-68
2022/07/28 02:56:15;;;;;;;1.87;1.20;;;18.10;58.50;;;;;;4995412;28;20488;-67
2022/07/28 02:58:42;;;;;;;5.73;1.30;;;18.10;58.40;;;;;;4995384;28;20460;-67
2022/07/28 03:01:09;;;;;;;2.57;1.30;;;18.10;58.50;;;;;;4995248;28;20451;-68
2022/07/28 03:03:36;;;;;;;3.30;1.30;;;18.00;58.50;;;;;;4995413;28;20825;-67
2022/07/28 03:06:04;;;;;;;5.10;1.33;;;18.00;58.50;;;;;;4995027;28;20810;-67
2022/07/28 03:08:31;;;;;;;3.00;1.30;;;17.90;58.60;;;;;;4994910;28;20794;-67
2022/07/28 03:11:08;;;;;;;2.57;1.23;;;17.90;58.80;;;;;;4995173;28;20795;-67
2022/07/28 03:13:35;;;;;;;2.90;1.17;;;17.80;58.90;;;;;;4994929;28;20808;-67
2022/07/28 03:16:02;;;;;;;4.27;1.23;;;17.80;59.10;;;;;;4995046;28;20491;-67
2022/07/28 03:18:30;;;;;;;2.40;1.30;;;17.80;59.10;;;;;;4995031;28;21022;-67
2022/07/28 03:20:57;;;;;;;1.50;1.30;;;17.70;59.10;;;;;;4994862;28;20486;-68
2022/07/28 03:23:31;;;;;;;1.10;1.00;;;17.70;59.10;;;;;;4995008;28;20453;-68
2022/07/28 03:26:05;;;;;;;2.70;1.30;;;17.70;59.10;;;;;;4994999;28;20443;-68
2022/07/28 03:28:33;;;;;;;2.60;1.37;;;17.70;59.10;;;;;;4994919;28;20515;-68
2022/07/28 03:31:03;;;;;;;4.70;1.20;;;17.60;59.20;;;;;;4994835;28;20461;-67
2022/07/28 03:33:31;;;;;;;2.30;1.20;;;17.60;59.20;;;;;;4995068;28;20451;-67
2022/07/28 03:36:01;;;;;;;1.30;1.10;;;17.60;59.10;;;;;;4994399;28;20851;-67
2022/07/28 03:38:34;;;;;;;2.87;1.23;;;17.60;59.20;;;;;;4994708;28;20497;-67
2022/07/28 03:41:02;;;;;;;1.80;1.23;;;17.50;59.20;;;;;;4994708;28;20439;-68
2022/07/28 03:43:29;;;;;;;1.50;1.40;;;17.50;59.20;;;;;;4994656;28;20463;-67
2022/07/28 03:45:56;;;;;;;1.87;1.07;;;17.40;59.30;;;;;;4994649;28;20451;-67
2022/07/28 03:48:28;;;;;;;2.50;1.10;;;17.40;59.30;;;;;;4994540;28;20480;-67
2022/07/28 03:50:55;;;;;;;1.80;1.23;;;17.40;59.40;;;;;;4994267;28;20805;-67
2022/07/28 03:53:25;;;;;;;3.57;1.40;;;17.40;59.50;;;;;;4994238;28;20972;-67
2022/07/28 03:55:54;;;;;;;1.40;1.30;;;17.40;59.50;;;;;;4994392;28;20447;-67
2022/07/28 03:58:22;;;;;;;3.47;1.50;;;17.30;59.50;;;;;;4994305;28;20457;-67
2022/07/28 04:00:49;;;;;;;4.30;1.53;;;17.30;59.60;;;;;;4994433;28;20451;-67
2022/07/28 04:03:16;;;;;;;1.80;1.57;;;17.30;59.70;;;;;;4994003;28;20984;-67
2022/07/28 04:05:43;;;;;;;2.47;1.20;;;17.20;59.70;;;;;;4994331;28;20452;-67
2022/07/28 04:08:09;;;;;;;2.93;1.30;;;17.20;59.80;;;;;;4994295;28;20496;-67
2022/07/28 04:10:36;;;;;;;2.00;1.20;;;17.20;59.90;;;;;;4994140;28;20470;-67
2022/07/28 04:13:04;;;;;;;6.13;1.10;;;17.20;59.90;;;;;;4993947;28;20467;-67
2022/07/28 04:15:31;;;;;;;2.77;1.47;;;17.20;60.00;;;;;;4994220;28;20448;-67
2022/07/28 04:17:59;;;;;;;2.80;1.47;;;17.20;60.30;;;;;;4994105;28;20484;-67
2022/07/28 04:20:28;;;;;;;6.47;1.43;;;17.20;60.40;;;;;;4993762;28;21016;-67
2022/07/28 04:22:55;;;;;;;4.20;2.00;;;17.20;60.40;;;;;;4993825;28;21016;-67
2022/07/28 04:25:24;;;;;;;1.90;1.53;;;17.20;60.60;;;;;;4994101;28;20455;-67
2022/07/28 04:27:52;;;;;;;2.13;1.70;;;17.20;60.50;;;;;;4994073;28;20432;-67
2022/07/28 04:30:24;;;;;;;3.00;1.57;;;17.20;60.50;;;;;;4993906;28;20472;-67
2022/07/28 04:32:52;;;;;;;10.20;1.27;;;17.20;60.60;;;;;;4994013;28;20433;-67
2022/07/28 04:35:19;;;;;;;2.20;1.50;;;17.20;60.40;;;;;;4993997;28;20455;-67
2022/07/28 04:37:47;;;;;;;3.73;1.70;;;17.20;60.40;;;;;;4995175;28;20476;-67
2022/07/28 04:40:14;;;;;;;2.17;1.53;;;17.20;60.60;;;;;;4997620;28;20859;-68
2022/07/28 04:42:41;;;;;;;4.27;1.70;;;17.20;60.70;;;;;;4997998;28;20452;-68
2022/07/28 04:45:11;;;;;;;2.80;1.47;;;17.20;60.90;;;;;;4997968;28;20459;-68
2022/07/28 04:47:39;;;;;;;3.33;1.67;;;17.20;61.40;;;;;;4997936;28;20443;-67
2022/07/28 04:50:08;;;;;;;3.43;1.20;;;17.20;61.40;;;;;;4997759;28;20813;-67
2022/07/28 04:52:35;;;;;;;2.40;1.40;;;17.20;61.90;;;;;;4997522;28;20487;-67
2022/07/28 04:55:02;;;;;;;2.37;1.50;;;17.20;62.10;;;;;;4997756;28;20463;-67
2022/07/28 04:57:29;;;;;;;3.47;1.20;;;17.20;62.50;;;;;;4997336;28;20847;-67
2022/07/28 04:59:56;;;;;;;2.90;1.50;;;17.20;62.80;;;;;;4997569;28;20472;-67
2022/07/28 05:02:22;;;;;;;2.80;1.40;;;17.20;62.80;;;;;;4997620;28;20460;-67
2022/07/28 05:04:51;;;;;;;4.07;1.97;;;17.20;63.10;;;;;;4997255;28;20455;-67
2022/07/28 05:07:17;;;;;;;5.00;1.53;;;17.20;63.30;;;;;;4997545;28;20444;-67
2022/07/28 05:09:44;;;;;;;4.93;1.23;;;17.20;63.50;;;;;;4997100;28;20467;-67
2022/07/28 05:12:11;;;;;;;5.50;1.23;;;17.30;64.20;;;;;;4997318;28;20958;-67
2022/07/28 05:14:38;;;;;;;4.60;1.70;;;17.30;64.40;;;;;;4997409;28;20451;-67
2022/07/28 05:17:05;;;;;;;4.90;1.50;;;17.30;64.60;;;;;;4996982;28;21009;-67
2022/07/28 05:19:32;;;;;;;3.33;1.80;;;17.40;65.20;;;;;;4997216;28;20515;-67
2022/07/28 05:22:00;;;;;;;12.13;2.03;;;17.40;65.60;;;;;;4996941;28;20933;-67
2022/07/28 05:24:27;;;;;;;4.40;1.50;;;17.50;65.70;;;;;;4996914;28;20448;-67
2022/07/28 05:26:54;;;;;;;2.27;1.77;;;17.60;66.70;;;;;;4997155;28;20444;-67
2022/07/28 05:29:20;;;;;;;3.10;1.37;;;17.60;66.20;;;;;;4997177;28;20475;-67
2022/07/28 05:31:47;;;;;;;6.13;2.03;;;17.60;65.90;;;;;;4997112;28;20448;-68
2022/07/28 05:34:14;;;;;;;2.73;1.73;;;17.70;66.30;;;;;;4997243;28;20462;-67
2022/07/28 05:36:41;;;;;;;7.60;2.90;;;17.80;66.80;;;;;;4996967;28;20479;-67
2022/07/28 05:39:09;;;;;;;4.33;1.80;;;17.90;65.60;;;;;;4997209;28;20484;-68
2022/07/28 05:41:35;;;;;;;6.63;1.80;;;17.90;65.40;;;;;;4997252;28;20452;-67
2022/07/28 05:44:02;;;;;;;6.70;1.87;;;18.00;65.60;;;;;;4996903;28;20451;-68
2022/07/28 05:46:29;;;;;;;3.30;1.50;;;18.00;65.80;;;;;;4996929;28;20452;-68
2022/07/28 05:48:56;;;;;;;5.50;2.33;;;18.10;66.00;;;;;;4995629;28;20471;-68
2022/07/28 05:51:23;;;;;;;1.93;1.60;;;18.20;65.60;;;;;;4996683;28;20444;-68
2022/07/28 05:53:49;;;;;;;3.87;1.80;;;18.20;65.00;;;;;;4996464;28;20455;-68
2022/07/28 05:56:17;;;;;;;5.37;1.73;;;18.20;65.00;;;;;;4996288;28;20798;-68
2022/07/28 05:58:44;;;;;;;6.37;2.03;;;18.30;65.00;;;;;;4996507;28;20475;-68
2022/07/28 06:01:11;;;;;;;4.17;2.30;;;18.40;65.60;;;;;;4996243;28;20930;-68
2022/07/28 06:03:38;;;;;;;5.40;1.60;;;18.40;65.50;;;;;;4996656;28;20455;-68
2022/07/28 06:06:05;;;;;;;8.43;2.97;;;18.50;65.20;;;;;;4996237;28;20456;-67
2022/07/28 06:08:31;;;;;;;4.70;1.90;;;18.60;65.60;;;;;;4996056;28;20491;-67
2022/07/28 06:11:12;;;;;;;4.70;2.00;;;18.60;65.00;;;;;;4996404;28;20448;-67
2022/07/28 06:13:40;;;;;;;5.30;2.10;;;18.70;64.50;;;;;;4996072;28;20621;-67
2022/07/28 06:16:07;;;;;;;4.40;2.27;;;18.80;64.30;;;;;;4996331;28;20451;-67
2022/07/28 06:18:34;;;;;;;3.50;2.20;;;18.90;64.40;;;;;;4995814;28;20841;-67
2022/07/28 06:21:00;;;;;;;2.70;2.00;;;19.00;64.30;;;;;;4995618;28;21062;-68
2022/07/28 06:23:27;;;;;;;5.30;2.20;;;19.00;64.00;;;;;;4996192;28;20455;-68
2022/07/28 06:25:54;;;;;;;7.63;2.30;;;19.10;64.00;;;;;;4995844;28;20965;-68
2022/07/28 06:28:21;;;;;;;5.63;3.20;;;19.20;63.50;;;;;;4995692;28;20968;-68
2022/07/28 06:30:49;;;;;;;6.73;2.60;;;19.20;63.10;;;;;;4995719;28;20947;-68
2022/07/28 06:33:17;;;;;;;6.60;2.90;;;19.30;63.30;;;;;;4995926;28;20456;-66
2022/07/28 06:35:44;;;;;;;3.27;1.80;;;19.30;63.20;;;;;;4997862;28;20921;-69
2022/07/28 06:38:11;;;;;;;4.20;2.07;;;19.40;63.20;;;;;;4996228;28;20488;-68
2022/07/28 06:40:38;;;;;;;10.67;2.70;;;19.50;63.00;;;;;;4995691;28;20472;-67
2022/07/28 06:43:05;;;;;;;6.03;2.60;;;19.60;62.70;;;;;;4995833;28;20459;-67
2022/07/28 06:45:31;;;;;;;5.23;1.80;;;19.60;62.60;;;;;;4995751;28;20528;-67
2022/07/28 06:48:00;;;;;;;6.47;1.80;;;19.70;62.60;;;;;;4995714;28;20444;-67
2022/07/28 06:50:26;;;;;;;5.63;2.20;;;19.80;62.70;;;;;;4995952;28;20829;-67
2022/07/28 06:52:54;;;;;;;4.13;2.33;;;19.90;61.70;;;;;;4995581;28;20448;-67
2022/07/28 06:55:20;;;;;;;4.20;2.27;;;20.00;61.60;;;;;;4995564;28;20452;-68
2022/07/28 06:57:47;;;;;;;6.83;1.37;;;20.10;61.30;;;;;;4995421;28;20486;-68
2022/07/28 07:00:14;;;;;;;5.20;2.10;;;20.20;60.10;;;;;;4994969;28;20476;-67
2022/07/28 07:02:41;;;;;;;11.33;2.00;;;20.30;60.80;;;;;;4995331;28;20451;-67
2022/07/28 07:05:11;;;;;;;2.80;2.10;;;20.30;60.80;;;;;;4995382;28;20459;-67
2022/07/28 07:07:38;;;;;;;3.53;1.50;;;20.40;60.20;;;;;;4995270;28;20511;-67
2022/07/28 07:10:05;;;;;;;5.83;1.60;;;20.40;59.70;;;;;;4995723;28;20468;-67
2022/07/28 07:12:33;;;;;;;7.70;1.77;;;20.40;59.70;;;;;;4995042;28;20467;-68
2022/07/28 07:15:00;;;;;;;6.10;1.77;;;20.40;59.40;;;;;;4995187;28;20452;-68
2022/07/28 07:17:27;;;;;;;2.63;1.70;;;20.40;59.10;;;;;;4995029;28;20483;-68
2022/07/28 07:19:54;;;;;;;4.03;2.10;;;20.40;58.90;;;;;;4994997;28;20821;-67
2022/07/28 07:22:22;;;;;;;5.50;2.10;;;20.50;59.00;;;;;;4995267;28;20459;-67
2022/07/28 07:24:49;;;;;;;3.73;1.83;;;20.60;59.30;;;;;;4994747;28;20823;-68
2022/07/28 07:27:16;;;;;;;4.60;2.00;;;20.80;59.00;;;;;;4994957;28;20452;-67
2022/07/28 07:29:42;;;;;;;3.50;1.77;;;20.90;58.60;;;;;;4994829;28;20472;-67
2022/07/28 07:32:09;;;;;;;6.03;2.17;;;21.20;58.10;;;;;;4994813;28;20450;-67
2022/07/28 07:34:38;;;;;;;2.60;1.43;;;21.40;57.20;;;;;;4994840;28;20450;-67
2022/07/28 07:37:05;;;;;;;4.80;1.37;;;21.70;56.50;;;;;;4994720;28;20475;-67
2022/07/28 07:39:33;;;;;;;6.40;2.40;;;21.90;55.50;;;;;;4994617;28;20503;-67
2022/07/28 07:42:00;;;;;;;3.93;1.87;;;22.20;54.60;;;;;;4994698;28;20455;-68
2022/07/28 07:44:27;;;;;;;5.33;1.73;;;22.40;54.40;;;;;;4994709;28;20436;-68
2022/07/28 07:46:53;;;;;;;4.80;1.70;;;22.70;53.90;;;;;;4994692;28;20448;-68
2022/07/28 07:49:20;;;;;;;4.30;1.37;;;22.90;53.20;;;;;;4994166;28;20977;-68
2022/07/28 07:51:47;;;;;;;4.47;2.00;;;23.20;52.70;;;;;;4994320;28;20453;-68
2022/07/28 07:54:13;;;;;;;4.87;1.53;;;23.40;53.00;;;;;;4994491;28;20456;-68
2022/07/28 07:56:41;;;;;;;3.97;2.07;;;23.50;51.60;;;;;;4994069;28;20954;-68
2022/07/28 07:59:08;;;;;;;4.97;1.33;;;23.70;51.10;;;;;;4993995;28;20495;-68
2022/07/28 08:01:35;;;;;;;4.33;1.57;;;23.90;50.80;;;;;;4994381;28;20456;-68
2022/07/28 08:04:02;;;;;;;3.90;1.57;;;24.10;50.00;;;;;;4994395;28;20455;-68
2022/07/28 08:06:28;;;;;;;4.60;1.70;;;24.30;49.10;;;;;;4994066;28;20973;-68
2022/07/28 08:08:55;;;;;;;5.27;1.43;;;24.60;48.50;;;;;;4994260;28;20473;-68
2022/07/28 08:11:22;;;;;;;3.57;1.70;;;24.80;47.90;;;;;;4994203;28;20472;-68
2022/07/28 08:13:50;;;;;;;2.50;1.47;;;25.00;47.80;;;;;;4993723;28;20444;-68
2022/07/28 08:16:17;;;;;;;3.80;1.50;;;25.20;47.20;;;;;;4994339;28;20448;-68
2022/07/28 08:18:44;;;;;;;3.53;1.80;;;25.40;46.60;;;;;;4993680;28;20484;-68
2022/07/28 08:21:12;;;;;;;4.70;1.67;;;25.60;46.20;;;;;;4994153;28;20455;-68
2022/07/28 08:23:39;;;;;;;3.93;1.50;;;25.70;45.60;;;;;;4994130;28;20510;-68
2022/07/28 08:26:05;;;;;;;3.40;1.60;;;25.90;45.60;;;;;;4993806;28;20814;-68
2022/07/28 08:28:32;;;;;;;2.47;1.13;;;26.00;45.40;;;;;;4993646;28;20448;-68
2022/07/28 08:31:00;;;;;;;3.10;1.30;;;26.30;44.90;;;;;;4994092;28;20448;-68
2022/07/28 08:33:27;;;;;;;6.47;2.10;;;26.40;44.60;;;;;;4993947;28;20448;-68
2022/07/28 08:35:54;;;;;;;2.90;1.57;;;26.60;43.80;;;;;;4994041;28;20456;-68
2022/07/28 08:38:20;;;;;;;4.10;1.50;;;26.80;43.50;;;;;;4993838;28;20910;-68
2022/07/28 08:40:51;;;;;;;5.17;1.60;;;26.90;43.00;;;;;;4994035;28;20454;-68
2022/07/28 08:43:30;;;;;;;4.53;1.43;;;27.10;42.20;;;;;;4993725;28;20789;-68
2022/07/28 08:46:00;;;;;;;2.57;1.43;;;27.30;42.10;;;;;;4994090;28;20436;-68
2022/07/28 08:48:30;;;;;;;2.87;1.50;;;27.50;42.30;;;;;;4993684;28;20968;-68
2022/07/28 08:51:02;;;;;;;2.90;1.17;;;27.70;41.20;;;;;;4993931;28;20436;-68
2022/07/28 08:53:30;;;;;;;3.10;1.30;;;27.80;40.70;;;;;;4993956;28;20436;-68
2022/07/28 08:56:01;;;;;;;8.93;1.60;;;28.00;40.40;;;;;;4993631;28;20950;-68
2022/07/28 08:58:29;;;;;;;3.43;1.80;;;28.10;40.40;;;;;;4993816;28;20518;-68
2022/07/28 09:00:56;;;;;;;4.13;1.60;;;28.20;40.10;;;;;;4993884;28;20443;-68
2022/07/28 09:03:24;;;;;;;1.83;1.20;;;28.40;39.80;;;;;;4994156;28;20452;-68
2022/07/28 09:05:51;;;;;;;4.60;1.63;;;28.60;39.50;;;;;;4993510;28;20436;-68
2022/07/28 09:08:18;;;;;;;7.37;1.67;;;28.80;38.30;;;;;;4993695;28;20444;-68
2022/07/28 09:10:45;;;;;;;4.33;1.67;;;28.90;38.30;;;;;;4993664;28;20487;-68
2022/07/28 09:13:12;;;;;;;3.13;1.33;;;29.10;38.00;;;;;;4993402;28;20455;-68
2022/07/28 09:15:38;;;;;;;2.30;1.00;;;29.40;37.30;;;;;;4993769;28;20452;-68
2022/07/28 09:18:05;;;;;;;9.30;1.70;;;29.60;36.70;;;;;;4993265;28;20997;-68
2022/07/28 09:20:35;;;;;;;1.57;0.77;;;29.80;36.60;;;;;;4993422;28;20515;-70
2022/07/28 09:23:05;;;;;;;3.10;1.07;;;30.00;36.30;;;;;;4993936;28;20452;-71
2022/07/28 09:25:32;;;;;;;2.20;1.10;;;30.20;36.10;;;;;;4997326;28;20791;-70
2022/07/28 09:28:06;;;;;;;1.70;1.00;;;30.40;34.80;;;;;;4997169;28;20447;-70
2022/07/28 09:30:35;;;;;;;6.93;1.37;;;30.50;33.20;;;;;;4996802;28;20984;-70
2022/07/28 09:33:19;;;;;;;4.40;1.20;;;30.70;33.30;;;;;;4997043;28;20550;-70
2022/07/28 09:35:50;;;;;;;1.90;0.90;;;30.90;33.30;;;;;;4997150;28;20486;-70
2022/07/28 09:38:18;;;;;;;3.93;1.10;;;31.10;33.30;;;;;;4996982;28;20467;-69
2022/07/28 09:40:58;;;;;;;5.10;1.27;;;31.20;33.50;;;;;;4996929;28;20462;-70
2022/07/28 09:43:32;;;;;;;3.57;1.37;;;31.40;33.10;;;;;;4996966;28;20436;-70
2022/07/28 09:46:07;;;;;;;2.00;1.43;;;31.70;32.30;;;;;;4996871;28;20447;-71
2022/07/28 09:48:34;;;;;;;6.60;1.57;;;31.90;31.80;;;;;;4996759;28;20486;-70
2022/07/28 09:51:12;;;;;;;2.73;1.43;;;32.10;31.70;;;;;;4996577;28;20448;-70
2022/07/28 09:53:40;;;;;;;4.50;1.47;;;32.30;31.40;;;;;;4996825;28;20436;-70
2022/07/28 09:56:07;;;;;;;7.20;1.50;;;32.50;30.80;;;;;;4996654;28;20554;-70
2022/07/28 09:58:34;;;;;;;2.57;1.43;;;32.60;30.10;;;;;;4996218;28;21017;-70
2022/07/28 10:01:06;;;;;;;2.80;1.50;;;32.70;30.30;;;;;;4996613;28;20443;-71
2022/07/28 10:03:33;;;;;;;3.57;1.40;;;32.90;30.30;;;;;;4996298;28;20447;-70
2022/07/28 10:06:03;;;;;;;3.63;1.40;;;33.20;29.90;;;;;;4996527;28;20552;-70
2022/07/28 10:08:42;;;;;;;4.47;1.80;;;33.40;29.50;;;;;;4996460;28;20475;-70
2022/07/28 10:11:10;;;;;;;1.70;1.17;;;33.60;28.80;;;;;;4996266;28;20443;-70
2022/07/28 10:13:56;;;;;;;4.23;1.40;;;33.80;28.70;;;;;;4996233;28;20902;-71
2022/07/28 10:16:24;;;;;;;3.50;1.47;;;34.10;28.60;;;;;;4996406;28;20428;-71
2022/07/28 10:18:51;;;;;;;5.30;1.50;;;34.40;27.50;;;;;;4996148;28;20492;-70
2022/07/28 10:21:19;;;;;;;4.70;1.30;;;34.60;27.30;;;;;;4996348;28;20450;-71
2022/07/28 10:23:49;;;;;;;7.47;1.60;;;34.90;27.00;;;;;;4996239;28;20448;-71
2022/07/28 10:26:20;;;;;;;4.80;1.70;;;35.30;26.50;;;;;;4995980;28;20435;-71
2022/07/28 10:28:49;;;;;;;3.87;1.40;;;35.60;25.60;;;;;;4996059;28;20467;-70
2022/07/28 10:31:33;;;;;;;3.77;1.27;;;35.90;25.10;;;;;;4995776;28;20972;-70
2022/07/28 10:34:02;;;;;;;2.93;1.40;;;36.10;24.90;;;;;;4996133;28;20432;-71
2022/07/28 10:36:30;;;;;;;3.50;1.23;;;36.40;24.60;;;;;;4995046;28;20946;-72
2022/07/28 10:39:06;;;;;;;5.27;1.80;;;36.80;24.30;;;;;;4995762;28;20494;-70
2022/07/28 10:41:39;;;;;;;4.73;1.20;;;37.30;24.00;;;;;;4995924;28;20192;-71
2022/07/28 10:44:08;;;;;;;2.15;1.38;;;37.70;23.10;;;;;;4995901;28;20283;-71
2022/07/28 10:46:37;;;;;;;2.50;1.00;;;37.90;22.60;;;;;;4995807;28;20214;-71
2022/07/28 10:49:04;;;;;;;1.13;1.00;;;38.20;22.20;;;;;;4995648;28;20225;-70
2022/07/28 10:51:31;;;;;;;1.73;1.00;;;38.50;21.90;;;;;;4995440;28;20208;-70
2022/07/28 10:54:07;;;;;;;3.00;1.48;;;38.70;21.50;;;;;;4995469;28;20204;-72
2022/07/28 10:56:45;;;;;;;2.08;1.35;;;38.90;21.50;;;;;;4995513;28;20189;-72
2022/07/28 10:59:21;;;;;;;3.45;1.50;;;39.20;21.00;;;;;;4995507;28;20243;-70
2022/07/28 11:01:48;;;;;;;2.78;1.00;;;39.50;20.40;;;;;;4995505;28;20185;-70
2022/07/28 11:04:50;;;;;;;2.47;1.10;;;39.90;20.00;;;;;;4995438;28;20230;-71
2022/07/28 11:07:18;;;;;;;2.05;1.10;;;40.40;20.00;;;;;;4995428;28;20211;-71
2022/07/28 11:09:47;;;;;;;5.28;1.30;;;40.90;20.00;;;;;;4994999;28;20709;-70
2022/07/28 11:12:15;;;;;;;4.07;1.30;;;41.30;19.10;;;;;;4994977;28;20704;-70
2022/07/28 11:14:43;;;;;;;5.13;1.40;;;41.70;19.00;;;;;;4995238;28;20209;-71
2022/07/28 11:17:19;;;;;;;6.57;1.67;;;42.00;18.30;;;;;;4995193;28;20231;-71
2022/07/28 11:19:54;;;;;;;3.22;1.33;;;42.10;18.50;;;;;;4995014;28;20239;-71
2022/07/28 11:22:27;;;;;;;2.85;1.23;;;42.20;18.40;;;;;;4995080;28;20193;-70
2022/07/28 11:25:17;;;;;;;2.80;1.27;;;42.40;18.30;;;;;;4995141;28;20243;-71
2022/07/28 11:28:03;;;;;;;3.63;1.45;;;42.60;18.40;;;;;;4995011;28;20344;-72
2022/07/28 11:30:52;;;;;;;2.05;1.20;;;42.90;17.50;;;;;;4994921;28;20267;-70
2022/07/28 11:33:20;;;;;;;5.57;1.33;;;43.10;17.20;;;;;;4982006;28;20204;-70
2022/07/28 11:35:55;;;;;;;3.83;1.13;;;43.10;17.40;;;;;;4994573;28;20686;-71
2022/07/28 11:38:22;;;;;;;3.97;1.70;;;43.20;17.70;;;;;;4994685;28;20228;-70
2022/07/28 11:40:52;;;;;;;3.25;1.30;;;43.40;17.60;;;;;;4994739;28;20239;-70
2022/07/28 11:43:38;;;;;;;1.98;1.08;;;43.90;16.80;;;;;;4994444;28;20693;-71
2022/07/28 11:46:34;;;;;;;2.53;1.25;;;44.30;15.90;;;;;;4994713;28;20189;-71
2022/07/28 11:49:27;;;;;;;4.57;1.55;;;44.80;16.70;;;;;;4993881;28;20221;-71
2022/07/28 11:52:14;;;;;;;3.40;1.20;;;45.20;15.80;;;;;;4994626;28;20188;-71
2022/07/28 11:54:42;;;;;;;2.05;1.30;;;45.50;15.70;;;;;;4994555;28;20208;-71
2022/07/28 11:57:10;;;;;;;3.67;1.35;;;45.60;15.60;;;;;;4994508;28;20209;-71
2022/07/28 11:59:42;;;;;;;3.67;1.25;;;45.90;15.40;;;;;;4994370;28;20228;-71
2022/07/28 12:02:09;;;;;;;3.38;1.40;;;46.40;15.00;;;;;;4994373;28;20200;-71
2022/07/28 12:04:35;;;;;;;3.13;1.10;;;46.80;14.80;;;;;;4994084;28;20661;-71
2022/07/28 12:07:04;;;;;;;3.60;1.10;;;47.00;15.10;;;;;;4994067;28;20208;-71
2022/07/28 12:09:31;;;;;;;2.10;1.15;;;47.00;14.20;;;;;;4994321;28;20228;-71
2022/07/28 12:11:58;;;;;;;2.10;1.02;;;46.80;14.40;;;;;;4993985;28;20215;-71
2022/07/28 12:14:27;;;;;;;5.55;1.17;;;46.80;14.70;;;;;;4994319;28;20208;-72
2022/07/28 12:16:54;;;;;;;1.35;0.90;;;46.80;14.70;;;;;;4994092;28;20215;-72
2022/07/28 12:19:22;;;;;;;2.70;1.45;;;47.00;14.40;;;;;;4994182;28;20596;-71
2022/07/28 12:21:51;;;;;;;3.22;1.25;;;47.10;14.20;;;;;;4993837;28;20205;-71
2022/07/28 12:24:20;;;;;;;3.13;1.20;;;47.00;14.60;;;;;;4994165;28;20577;-71
2022/07/28 12:26:47;;;;;;;2.58;1.25;;;46.60;14.80;;;;;;4994151;28;20259;-70
2022/07/28 12:29:14;;;;;;;3.03;1.10;;;45.90;15.20;;;;;;4993660;28;20706;-71
2022/07/28 12:31:53;;;;;;;4.70;1.70;;;45.10;15.70;;;;;;4993787;28;20674;-71
2022/07/28 12:34:20;;;;;;;2.67;1.30;;;44.60;16.10;;;;;;4993809;28;20235;-71
2022/07/28 12:36:48;;;;;;;2.38;1.30;;;44.10;16.50;;;;;;4994076;28;20569;-71
2022/07/28 12:39:17;;;;;;;2.10;1.10;;;43.50;17.10;;;;;;4993698;28;20714;-70
2022/07/28 12:41:43;;;;;;;2.28;1.30;;;42.90;17.60;;;;;;4993628;28;20620;-71
2022/07/28 12:44:11;;;;;;;3.13;1.50;;;42.30;18.40;;;;;;4993990;28;20205;-71
2022/07/28 12:46:37;;;;;;;2.72;1.02;;;41.80;18.40;;;;;;4993666;28;20697;-71
2022/07/28 12:49:19;;;;;;;2.15;1.17;;;41.40;19.00;;;;;;4993501;28;20236;-70
2022/07/28 12:51:46;;;;;;;2.55;1.33;;;41.70;19.30;;;;;;4993976;28;20212;-71
2022/07/28 12:54:13;;;;;;;1.88;1.40;;;42.00;18.90;;;;;;4993893;28;20212;-71
2022/07/28 12:56:49;;;;;;;2.78;1.48;;;42.40;18.70;;;;;;4993894;28;20208;-71
2022/07/28 12:59:18;;;;;;;4.68;1.30;;;43.10;18.40;;;;;;4995743;28;20318;-70